CheckWX is a tool to help pilots better visualize weather data.  It is not intended as a substitute for an official pre-flight weather briefing.

03:20:49 UTC

KOMH METAR
Orange County Airport
Orange, Virginia, USA
Current

26 mins ago

KOMH 230255Z AUTO 21006KT 10SM SCT120 21/20 A2982 RMK AO2
Observed
Jul-23 @ 02:55 UTC
Wind
  • 210° at 6 KTS
Visibility
10 SM
Flight Rules
VFR
Cloud Levels
  • Scattered at 12,000' AGL
Temperature
21°C / 70°F
Dewpoint
20°C / 68°F
Humidity
94%
Altimeter
29.82" Hg
Pressure
1009.82 hPa
Previous

46 mins ago

KOMH 230235Z AUTO 21006KT 10SM -DZ SCT110 21/20 A2982 RMK AO2
Observed
Jul-23 @ 02:35 UTC
Wind
  • 210° at 6 KTS
Visibility
10 SM
Flight Rules
VFR
Conditions
Light Drizzle
Cloud Levels
  • Scattered at 11,000' AGL
Temperature
21°C / 70°F
Dewpoint
20°C / 68°F
Humidity
94%
Altimeter
29.82" Hg
Pressure
1009.82 hPa
Previous

1 hour ago

KOMH 230215Z AUTO 20006KT 10SM CLR 21/20 A2982 RMK AO2
Observed
Jul-23 @ 02:15 UTC
Wind
  • 200° at 6 KTS
Visibility
10 SM
Flight Rules
VFR
Cloud Levels
  • Clear skies
Temperature
21°C / 70°F
Dewpoint
20°C / 68°F
Humidity
94%
Altimeter
29.82" Hg
Pressure
1009.82 hPa